createdAt,value
2023-03-26T00:00:54.335Z,5.47
2023-03-26T00:03:22.450Z,5.80
2023-03-26T00:05:50.257Z,8.23
2023-03-26T00:08:17.009Z,3.63
2023-03-26T00:10:44.233Z,4.30
2023-03-26T00:13:11.357Z,4.35
2023-03-26T00:15:38.132Z,3.60
2023-03-26T00:18:05.808Z,4.00
2023-03-26T00:20:35.536Z,12.05
2023-03-26T00:23:02.282Z,3.60
2023-03-26T00:25:29.085Z,3.92
2023-03-26T00:27:55.790Z,3.60
2023-03-26T00:30:22.526Z,4.20
2023-03-26T00:32:53.602Z,3.90
2023-03-26T00:35:20.893Z,4.00
2023-03-26T00:37:47.922Z,4.15
2023-03-26T00:40:14.727Z,3.60
2023-03-26T00:42:42.552Z,3.92
2023-03-26T00:45:09.550Z,3.80
2023-03-26T00:47:36.722Z,3.58
2023-03-26T00:50:04.330Z,3.42
2023-03-26T00:52:31.780Z,3.60
2023-03-26T00:54:58.628Z,3.63
2023-03-26T01:00:00.229Z,4.97
2023-03-26T01:02:27.464Z,3.78
2023-03-26T01:04:56.916Z,3.40
2023-03-26T01:07:29.186Z,4.18
2023-03-26T01:09:57.758Z,4.07
2023-03-26T01:12:26.579Z,4.32
2023-03-26T01:14:54.816Z,6.45
2023-03-26T01:17:22.212Z,8.07
2023-03-26T01:19:54.531Z,8.77
2023-03-26T01:22:22.297Z,11.65
2023-03-26T01:24:53.254Z,13.45
2023-03-26T01:27:26.795Z,17.75
2023-03-26T01:29:55.697Z,17.45
2023-03-26T01:32:44.136Z,16.92
2023-03-26T01:35:22.967Z,17.85
2023-03-26T01:38:01.797Z,18.58
2023-03-26T01:40:38.694Z,20.63
2023-03-26T01:43:10.977Z,20.50
2023-03-26T01:45:39.834Z,19.75
2023-03-26T01:48:07.060Z,19.75
2023-03-26T01:50:33.775Z,20.88
2023-03-26T01:53:00.682Z,21.02
2023-03-26T01:55:37.255Z,19.48
2023-03-26T01:58:19.122Z,20.50
2023-03-26T02:00:53.593Z,19.33
2023-03-26T02:03:47.478Z,19.38
2023-03-26T02:06:26.795Z,18.55
2023-03-26T02:08:56.149Z,17.60
2023-03-26T02:11:23.401Z,16.67
2023-03-26T02:13:50.923Z,17.73
2023-03-26T02:16:19.627Z,16.77
2023-03-26T02:18:51.411Z,15.70
2023-03-26T02:21:20.543Z,16.67
2023-03-26T02:23:50.783Z,17.48
2023-03-26T02:26:19.195Z,18.00
2023-03-26T02:28:57.359Z,17.50
2023-03-26T02:31:27.397Z,19.38
2023-03-26T02:33:55.701Z,19.48
2023-03-26T02:36:27.860Z,19.83
2023-03-26T02:39:00.273Z,20.83
2023-03-26T02:41:29.249Z,21.02
2023-03-26T02:44:02.605Z,21.92
2023-03-26T02:46:47.857Z,22.23
2023-03-26T02:49:34.022Z,22.17
2023-03-26T02:52:01.242Z,22.42
2023-03-26T02:54:28.188Z,22.63
2023-03-26T02:57:15.678Z,22.08
2023-03-26T02:59:43.162Z,22.73
2023-03-26T03:02:29.564Z,20.35
2023-03-26T03:05:05.931Z,19.13
2023-03-26T03:07:37.982Z,20.30
2023-03-26T03:10:08.628Z,20.63
2023-03-26T03:12:54.446Z,19.98
2023-03-26T03:15:21.162Z,19.95
2023-03-26T03:17:47.928Z,19.27
2023-03-26T03:20:15.534Z,19.23
2023-03-26T03:22:42.544Z,20.50
2023-03-26T03:25:14.243Z,19.52
2023-03-26T03:27:42.993Z,18.85
2023-03-26T03:30:13.293Z,19.17
2023-03-26T03:32:46.195Z,19.25
2023-03-26T03:35:16.419Z,19.52
2023-03-26T03:37:47.792Z,19.60
2023-03-26T03:40:14.616Z,20.08
2023-03-26T03:42:41.692Z,20.33
2023-03-26T03:45:10.011Z,20.38
2023-03-26T03:47:55.231Z,20.85
2023-03-26T03:50:34.336Z,22.23
2023-03-26T03:53:21.638Z,22.25
2023-03-26T03:55:54.790Z,23.08
2023-03-26T03:58:28.361Z,24.02
2023-03-26T04:01:01.059Z,25.15
2023-03-26T04:03:46.520Z,25.75
2023-03-26T04:06:18.857Z,24.73
2023-03-26T04:08:51.138Z,26.17
2023-03-26T04:11:18.094Z,25.05
2023-03-26T04:14:06.048Z,23.38
2023-03-26T04:16:58.924Z,23.25
2023-03-26T04:19:27.500Z,23.50
2023-03-26T04:21:56.025Z,25.73
2023-03-26T04:24:24.581Z,24.90
2023-03-26T04:27:20.263Z,26.10
2023-03-26T04:29:48.241Z,30.65
2023-03-26T04:32:26.761Z,30.10
2023-03-26T04:34:54.544Z,28.17
2023-03-26T04:37:28.360Z,27.98
2023-03-26T04:40:11.588Z,26.70
2023-03-26T04:42:48.323Z,25.30
2023-03-26T04:45:23.322Z,25.67
2023-03-26T04:47:58.185Z,25.33
2023-03-26T04:50:26.543Z,25.15
2023-03-26T04:52:54.732Z,25.20
2023-03-26T04:55:50.417Z,27.58
2023-03-26T04:58:33.331Z,31.38
2023-03-26T05:01:10.312Z,32.75
2023-03-26T05:03:39.659Z,31.35
2023-03-26T05:06:11.000Z,29.95
2023-03-26T05:08:38.163Z,28.08
2023-03-26T05:11:11.322Z,28.92
2023-03-26T05:13:38.463Z,27.98
2023-03-26T05:16:10.992Z,28.85
2023-03-26T05:18:40.923Z,33.35
2023-03-26T05:21:09.031Z,28.80
2023-03-26T05:23:38.726Z,27.30
2023-03-26T05:26:14.229Z,28.58
2023-03-26T05:28:41.416Z,31.00
2023-03-26T05:31:37.980Z,33.28
2023-03-26T05:34:04.833Z,33.15
2023-03-26T05:36:31.706Z,30.13
2023-03-26T05:39:25.741Z,30.92
2023-03-26T05:42:15.682Z,28.80
2023-03-26T05:44:59.940Z,27.63
2023-03-26T05:47:29.788Z,26.95
2023-03-26T05:49:57.075Z,24.38
2023-03-26T05:52:24.609Z,24.17
2023-03-26T05:55:10.461Z,22.73
2023-03-26T05:57:56.442Z,20.15
2023-03-26T06:00:42.789Z,19.95
2023-03-26T06:03:13.181Z,21.00
2023-03-26T06:06:07.827Z,19.90
2023-03-26T06:08:48.937Z,20.77
2023-03-26T06:11:29.990Z,18.88
2023-03-26T06:13:56.855Z,18.42
2023-03-26T06:16:27.232Z,18.23
2023-03-26T06:19:11.237Z,18.65
2023-03-26T06:21:56.550Z,18.73
2023-03-26T06:24:29.050Z,17.00
2023-03-26T06:27:18.879Z,17.08
2023-03-26T06:30:11.847Z,17.02
2023-03-26T06:32:46.296Z,16.92
2023-03-26T06:35:18.560Z,15.88
2023-03-26T06:37:45.970Z,16.08
2023-03-26T06:40:14.171Z,15.50
2023-03-26T06:43:06.873Z,14.73
2023-03-26T06:45:57.014Z,15.95
2023-03-26T06:48:39.847Z,15.27
2023-03-26T06:51:25.336Z,16.05
2023-03-26T06:54:10.866Z,14.85
2023-03-26T06:56:49.729Z,15.65
2023-03-26T06:59:35.030Z,15.60
2023-03-26T07:02:20.721Z,15.38
2023-03-26T07:05:07.048Z,15.63
2023-03-26T07:07:52.456Z,16.13
2023-03-26T07:10:37.545Z,18.27
2023-03-26T07:13:10.331Z,17.20
2023-03-26T07:16:06.799Z,17.02
2023-03-26T07:18:55.354Z,17.33
2023-03-26T07:21:26.314Z,18.08
2023-03-26T07:23:55.091Z,17.55
2023-03-26T07:26:43.373Z,16.20
2023-03-26T07:29:24.190Z,15.73
2023-03-26T07:32:32.670Z,16.70
2023-03-26T07:35:30.361Z,16.27
2023-03-26T07:38:33.097Z,18.20
2023-03-26T07:41:32.380Z,17.77
2023-03-26T07:44:43.479Z,18.05
2023-03-26T07:47:33.291Z,17.45
2023-03-26T07:50:38.687Z,19.92
2023-03-26T07:53:12.092Z,20.27
2023-03-26T07:56:05.772Z,21.40
2023-03-26T07:58:47.486Z,20.25
2023-03-26T08:01:48.508Z,19.63
2023-03-26T08:04:38.395Z,19.65
2023-03-26T08:07:23.915Z,20.80
2023-03-26T08:10:13.314Z,20.98
2023-03-26T08:12:59.863Z,21.90
2023-03-26T08:15:31.955Z,20.90
2023-03-26T08:18:10.618Z,20.05
2023-03-26T08:20:41.689Z,19.63
2023-03-26T08:23:16.418Z,18.50
2023-03-26T08:25:46.713Z,17.25
2023-03-26T08:28:16.825Z,16.35
2023-03-26T08:30:44.219Z,17.25
2023-03-26T08:33:13.048Z,16.80
2023-03-26T08:35:42.453Z,16.05
2023-03-26T08:38:11.497Z,17.17
2023-03-26T08:40:57.812Z,16.60
2023-03-26T08:43:39.063Z,16.15
2023-03-26T08:46:15.956Z,15.48
2023-03-26T08:48:45.608Z,16.50
2023-03-26T08:51:28.048Z,15.68
2023-03-26T08:54:09.987Z,16.63
2023-03-26T08:56:46.867Z,15.38
2023-03-26T08:59:28.719Z,15.52
2023-03-26T09:02:21.667Z,15.93
2023-03-26T09:05:20.333Z,17.23
2023-03-26T09:08:05.609Z,15.85
2023-03-26T09:10:41.585Z,14.93
2023-03-26T09:13:08.252Z,14.88
2023-03-26T09:15:48.544Z,15.50
2023-03-26T09:18:34.175Z,14.65
2023-03-26T09:21:03.986Z,15.07
2023-03-26T09:23:31.010Z,14.93
2023-03-26T09:26:07.788Z,14.10
2023-03-26T09:28:53.283Z,14.48
2023-03-26T09:31:35.353Z,13.82
2023-03-26T09:34:02.287Z,13.48
2023-03-26T09:36:37.883Z,13.13
2023-03-26T09:39:04.839Z,13.43
2023-03-26T09:41:31.554Z,13.55
2023-03-26T09:44:31.315Z,13.18
2023-03-26T09:47:13.020Z,12.60
2023-03-26T09:49:50.849Z,12.32
2023-03-26T09:52:17.615Z,12.00
2023-03-26T09:54:44.767Z,12.20
2023-03-26T09:57:20.024Z,13.32
2023-03-26T09:59:53.532Z,13.65
2023-03-26T10:02:20.485Z,13.23
2023-03-26T10:04:56.243Z,13.32
2023-03-26T10:07:34.861Z,14.13
2023-03-26T10:10:07.289Z,15.95
2023-03-26T10:12:37.360Z,13.45
2023-03-26T10:15:09.819Z,13.88
2023-03-26T10:17:42.684Z,14.55
2023-03-26T10:20:36.319Z,13.10
2023-03-26T10:23:18.905Z,12.82
2023-03-26T10:25:53.667Z,13.55
2023-03-26T10:28:20.685Z,13.38
2023-03-26T10:30:59.285Z,13.00
2023-03-26T10:33:44.840Z,13.65
2023-03-26T10:36:32.469Z,12.35
2023-03-26T10:38:59.211Z,11.80
2023-03-26T10:41:41.398Z,12.82
2023-03-26T10:44:16.989Z,12.13
2023-03-26T10:46:45.483Z,13.32
2023-03-26T10:49:31.010Z,11.55
2023-03-26T10:52:09.379Z,12.20
2023-03-26T10:54:54.896Z,12.30
2023-03-26T10:57:37.390Z,11.88
2023-03-26T11:00:26.635Z,11.52
2023-03-26T11:02:56.534Z,10.98
2023-03-26T11:05:29.718Z,12.50
2023-03-26T11:08:01.293Z,12.75
2023-03-26T11:10:37.117Z,9.27
2023-03-26T11:13:06.698Z,11.05
2023-03-26T11:15:37.678Z,11.55
2023-03-26T11:18:20.695Z,11.45
2023-03-26T11:21:19.527Z,11.93
2023-03-26T11:24:04.856Z,11.40
2023-03-26T11:26:49.276Z,10.68
2023-03-26T11:29:32.744Z,11.20
2023-03-26T11:32:06.443Z,10.43
2023-03-26T11:34:51.989Z,11.70
2023-03-26T11:37:23.642Z,10.00
2023-03-26T11:39:55.132Z,9.35
2023-03-26T11:42:24.074Z,9.60
2023-03-26T11:45:00.103Z,8.57
2023-03-26T11:47:31.205Z,8.18
2023-03-26T11:49:59.024Z,8.40
2023-03-26T11:52:26.753Z,8.63
2023-03-26T11:54:54.182Z,7.63
2023-03-26T11:57:26.287Z,7.47
2023-03-26T11:59:58.070Z,7.18
2023-03-26T12:02:27.710Z,7.75
2023-03-26T12:05:08.276Z,9.70
2023-03-26T12:07:35.686Z,8.05
2023-03-26T12:10:17.723Z,9.05
2023-03-26T12:12:46.508Z,7.57
2023-03-26T12:15:17.158Z,8.57
2023-03-26T12:17:43.989Z,7.47
2023-03-26T12:20:22.829Z,8.30
2023-03-26T12:22:49.527Z,8.20
2023-03-26T12:25:21.114Z,7.95
2023-03-26T12:27:52.892Z,8.40
2023-03-26T12:30:22.818Z,8.88
2023-03-26T12:32:50.320Z,8.50
2023-03-26T12:35:26.738Z,8.63
2023-03-26T12:40:35.951Z,8.82
2023-03-26T12:44:49.410Z,8.63
2023-03-26T12:47:26.395Z,8.55
2023-03-26T12:48:41.241Z,8.95
2023-03-26T12:51:13.187Z,8.80
2023-03-26T12:53:45.898Z,9.27
2023-03-26T12:56:13.393Z,9.43
2023-03-26T12:58:55.112Z,8.20
2023-03-26T13:01:37.352Z,8.52
2023-03-26T13:04:13.618Z,8.68
2023-03-26T13:07:01.817Z,9.23
2023-03-26T13:09:29.441Z,8.18
2023-03-26T13:12:09.212Z,8.77
2023-03-26T13:14:48.121Z,7.75
2023-03-26T13:17:31.464Z,8.20
2023-03-26T13:20:07.198Z,9.88
2023-03-26T13:22:49.348Z,8.57
2023-03-26T13:25:25.571Z,8.43
2023-03-26T13:28:07.381Z,7.30
2023-03-26T13:30:42.013Z,8.18
2023-03-26T13:33:15.044Z,7.80
2023-03-26T13:35:45.031Z,6.73
2023-03-26T13:38:15.427Z,8.02
2023-03-26T13:40:51.964Z,8.73
2023-03-26T13:43:24.778Z,9.00
2023-03-26T13:45:51.591Z,9.38
2023-03-26T13:48:21.391Z,10.40
2023-03-26T13:51:06.716Z,9.80
2023-03-26T13:53:56.807Z,10.88
2023-03-26T13:56:29.610Z,11.15
2023-03-26T13:58:59.525Z,12.38
2023-03-26T14:01:36.279Z,11.43
2023-03-26T14:04:26.636Z,10.93
2023-03-26T14:06:57.511Z,11.90
2023-03-26T14:09:32.141Z,11.75
2023-03-26T14:12:02.344Z,11.73
2023-03-26T14:14:32.353Z,10.75
2023-03-26T14:17:04.936Z,12.82
2023-03-26T14:19:48.953Z,11.90
2023-03-26T14:22:27.262Z,12.10
2023-03-26T14:25:00.209Z,13.95
2023-03-26T14:30:11.393Z,12.52
2023-03-26T14:33:04.224Z,13.40
2023-03-26T14:35:41.769Z,13.48
2023-03-26T14:38:08.451Z,12.68
2023-03-26T14:40:35.729Z,11.07
2023-03-26T14:43:21.212Z,10.77
2023-03-26T14:46:14.234Z,10.40
2023-03-26T14:48:56.320Z,8.50
2023-03-26T14:51:32.320Z,9.00
2023-03-26T14:54:13.840Z,9.02
2023-03-26T14:56:53.329Z,7.03
2023-03-26T14:59:34.353Z,7.10
2023-03-26T15:02:23.228Z,5.15
2023-03-26T15:05:02.450Z,5.05
2023-03-26T15:07:51.556Z,4.18
2023-03-26T15:10:37.083Z,6.65
2023-03-26T15:13:22.366Z,4.00
2023-03-26T15:16:16.782Z,4.25
2023-03-26T15:19:03.089Z,2.70
2023-03-26T15:21:30.116Z,2.65
2023-03-26T15:24:17.063Z,2.42
2023-03-26T15:26:49.763Z,5.47
2023-03-26T15:29:16.442Z,3.35
2023-03-26T15:32:02.159Z,3.38
2023-03-26T15:34:35.077Z,5.70
2023-03-26T15:37:31.362Z,5.05
2023-03-26T15:40:16.779Z,6.00
2023-03-26T15:42:45.551Z,6.20
2023-03-26T15:45:31.314Z,7.35
2023-03-26T15:48:13.378Z,6.82
2023-03-26T15:50:58.677Z,6.97
2023-03-26T15:53:31.396Z,8.43
2023-03-26T15:56:11.394Z,6.90
2023-03-26T15:59:07.407Z,7.53
2023-03-26T16:02:02.679Z,7.45
2023-03-26T16:04:59.098Z,10.48
2023-03-26T16:07:38.318Z,8.90
2023-03-26T16:10:23.979Z,8.38
2023-03-26T16:12:56.860Z,8.32
2023-03-26T16:15:28.086Z,9.80
2023-03-26T16:18:16.913Z,10.90
2023-03-26T16:20:57.114Z,10.95
2023-03-26T16:23:24.035Z,38.45
2023-03-26T16:26:07.727Z,8.65
2023-03-26T16:28:54.988Z,8.25
2023-03-26T16:31:38.322Z,8.98
2023-03-26T16:34:08.355Z,9.60
2023-03-26T16:36:36.195Z,11.50
2023-03-26T16:39:05.709Z,9.70
2023-03-26T16:41:33.366Z,9.68
2023-03-26T16:44:13.740Z,9.20
2023-03-26T16:46:50.449Z,13.57
2023-03-26T16:49:19.949Z,20.88
2023-03-26T16:52:05.125Z,15.48
2023-03-26T16:54:47.347Z,16.85
2023-03-26T16:57:17.286Z,20.63
2023-03-26T17:00:06.667Z,38.05
2023-03-26T17:02:51.130Z,17.88
2023-03-26T17:05:36.668Z,12.40
2023-03-26T17:08:06.352Z,11.27
2023-03-26T17:10:39.885Z,11.15
2023-03-26T17:13:32.256Z,25.30
2023-03-26T17:16:12.149Z,14.20
2023-03-26T17:18:43.389Z,11.18
2023-03-26T17:21:19.859Z,10.85
2023-03-26T17:24:22.298Z,11.02
2023-03-26T17:27:03.781Z,10.35
2023-03-26T17:29:49.646Z,11.23
2023-03-26T17:32:16.544Z,11.60
2023-03-26T17:34:54.712Z,12.30
2023-03-26T17:37:21.587Z,13.85
2023-03-26T17:39:51.194Z,12.55
2023-03-26T17:42:32.760Z,12.57
2023-03-26T17:45:20.603Z,13.05
2023-03-26T17:47:54.046Z,19.25
2023-03-26T17:50:25.349Z,18.85
2023-03-26T17:53:15.157Z,15.60
2023-03-26T17:55:43.563Z,17.02
2023-03-26T17:58:25.153Z,15.27
2023-03-26T18:00:59.161Z,14.45
2023-03-26T18:03:31.238Z,14.40
2023-03-26T18:06:02.545Z,14.07
2023-03-26T18:08:35.435Z,14.13
2023-03-26T18:11:05.605Z,14.37
2023-03-26T18:13:32.321Z,15.20
2023-03-26T18:16:02.029Z,15.25
2023-03-26T18:18:41.207Z,15.48
2023-03-26T18:21:08.130Z,23.17
2023-03-26T18:23:39.124Z,16.85
2023-03-26T18:26:11.416Z,14.23
2023-03-26T18:28:43.332Z,13.70
2023-03-26T18:31:20.981Z,13.80
2023-03-26T18:33:48.575Z,14.80
2023-03-26T18:36:16.214Z,15.20
2023-03-26T18:38:43.232Z,15.20
2023-03-26T18:41:17.057Z,15.10
2023-03-26T18:43:44.410Z,14.07
2023-03-26T18:46:14.806Z,13.65
2023-03-26T18:48:41.787Z,12.98
2023-03-26T18:51:08.766Z,13.25
2023-03-26T18:53:41.154Z,13.75
2023-03-26T18:56:34.278Z,12.85
2023-03-26T18:59:02.482Z,16.58
2023-03-26T19:01:33.087Z,12.98
2023-03-26T19:04:03.873Z,12.85
2023-03-26T19:06:35.947Z,11.93
2023-03-26T19:09:13.503Z,12.23
2023-03-26T19:11:45.352Z,12.68
2023-03-26T19:14:19.813Z,13.18
2023-03-26T19:16:56.145Z,12.18
2023-03-26T19:19:25.085Z,12.02
2023-03-26T19:21:52.204Z,12.68
2023-03-26T19:24:21.169Z,11.05
2023-03-26T19:26:48.418Z,11.38
2023-03-26T19:29:17.668Z,12.07
2023-03-26T19:31:44.393Z,12.48
2023-03-26T19:34:14.290Z,11.77
2023-03-26T19:37:01.196Z,11.70
2023-03-26T19:39:40.329Z,11.60
2023-03-26T19:42:11.454Z,12.90
2023-03-26T19:44:39.717Z,12.77
2023-03-26T19:47:08.222Z,12.63
2023-03-26T19:49:47.602Z,11.38
2023-03-26T19:52:15.901Z,12.38
2023-03-26T19:55:06.783Z,11.18
2023-03-26T19:57:36.648Z,10.80
2023-03-26T20:00:05.388Z,11.20
2023-03-26T20:02:32.343Z,11.20
2023-03-26T20:04:59.093Z,10.07
2023-03-26T20:10:14.223Z,10.13
2023-03-26T20:12:41.042Z,10.88
2023-03-26T20:15:19.267Z,10.07
2023-03-26T20:17:50.012Z,9.73
2023-03-26T20:20:17.463Z,9.75
2023-03-26T20:22:46.203Z,9.55
2023-03-26T20:25:31.163Z,8.50
2023-03-26T20:27:59.211Z,9.15
2023-03-26T20:33:12.481Z,9.18
2023-03-26T20:35:40.608Z,9.20
2023-03-26T20:38:09.568Z,9.40
2023-03-26T20:40:36.868Z,9.05
2023-03-26T20:43:03.646Z,9.75
2023-03-26T20:45:30.403Z,8.57
2023-03-26T20:47:57.585Z,9.07
2023-03-26T20:50:24.689Z,8.77
2023-03-26T20:52:51.432Z,8.85
2023-03-26T20:55:21.368Z,9.95
2023-03-26T20:57:49.057Z,9.82
2023-03-26T21:00:26.164Z,9.70
2023-03-26T21:02:54.388Z,9.48
2023-03-26T21:05:24.441Z,10.27
2023-03-26T21:07:52.203Z,9.98
2023-03-26T21:10:21.928Z,8.57
2023-03-26T21:13:11.086Z,9.82
2023-03-26T21:15:37.965Z,8.52
2023-03-26T21:18:04.880Z,8.70
2023-03-26T21:20:32.778Z,8.52
2023-03-26T21:23:18.821Z,9.10
2023-03-26T21:25:55.689Z,8.57
2023-03-26T21:28:35.737Z,8.48
2023-03-26T21:31:13.609Z,8.77
2023-03-26T21:33:41.136Z,8.18
2023-03-26T21:36:08.218Z,8.05
2023-03-26T21:38:35.518Z,8.30
2023-03-26T21:41:03.494Z,7.38
2023-03-26T21:43:30.661Z,7.22
2023-03-26T21:45:58.232Z,7.55
2023-03-26T21:48:25.176Z,7.60
2023-03-26T21:50:52.033Z,7.22
2023-03-26T21:53:18.912Z,6.93
2023-03-26T21:55:45.585Z,7.13
2023-03-26T21:58:12.540Z,7.53
2023-03-26T22:00:44.030Z,6.97
2023-03-26T22:03:16.259Z,7.50
2023-03-26T22:05:55.963Z,6.72
2023-03-26T22:08:22.815Z,7.00
2023-03-26T22:10:49.866Z,7.40
2023-03-26T22:13:16.965Z,7.55
2023-03-26T22:15:44.900Z,6.85
2023-03-26T22:18:12.142Z,7.80
2023-03-26T22:20:38.970Z,7.55
2023-03-26T22:23:06.845Z,7.85
2023-03-26T22:25:33.609Z,8.02
2023-03-26T22:28:00.614Z,8.00
2023-03-26T22:30:27.899Z,7.53
2023-03-26T22:32:55.749Z,8.05
2023-03-26T22:35:22.981Z,7.53
2023-03-26T22:37:50.449Z,7.38
2023-03-26T22:40:17.966Z,7.85
2023-03-26T22:42:44.673Z,7.18
2023-03-26T22:45:11.851Z,7.18
2023-03-26T22:47:38.685Z,7.07
2023-03-26T22:50:07.502Z,6.80
2023-03-26T22:52:35.249Z,7.30
2023-03-26T22:55:02.987Z,7.13
2023-03-26T22:57:30.306Z,7.40
2023-03-26T22:59:58.281Z,7.72
2023-03-26T23:02:25.187Z,7.57
2023-03-26T23:04:52.749Z,7.28
2023-03-26T23:07:19.549Z,7.53
2023-03-26T23:09:46.602Z,8.25
2023-03-26T23:12:13.757Z,7.93
2023-03-26T23:14:41.487Z,8.52
2023-03-26T23:17:14.517Z,7.93
2023-03-26T23:19:43.331Z,8.45
2023-03-26T23:22:10.082Z,9.48
2023-03-26T23:24:39.762Z,9.43
2023-03-26T23:27:07.189Z,9.32
2023-03-26T23:29:34.367Z,9.10
2023-03-26T23:32:01.285Z,8.57
2023-03-26T23:34:28.069Z,10.05
2023-03-26T23:36:54.863Z,9.70
2023-03-26T23:39:21.564Z,10.18
2023-03-26T23:41:48.285Z,10.07
2023-03-26T23:44:16.990Z,10.57
2023-03-26T23:46:44.207Z,11.52
2023-03-26T23:49:12.106Z,10.63
2023-03-26T23:51:39.017Z,11.60
2023-03-26T23:54:05.781Z,11.25
2023-03-26T23:56:32.701Z,12.10
2023-03-26T23:59:00.594Z,11.90
